Latest Weather Observations for Witchcliffe

IDW60801

Issued at 11:05 pm WST Wednesday 17 September 2014 (issued every 30 minutes, with the page automatically refreshed every 10 minutes)

About weather observations | Map of weather stations | Latest weather observations for WA | Other Formats
Station Details ID: 009746 Name: WITCHCLIFFE Lat: -34.03 Lon: 115.10 Height: 80.0 m
Data from the previous 72 hours. | See also: Recent months at Witchcliffe
Date/Time
WST
Temp
°C
App
Temp
°C
Dew
Point
Rel
Hum
%
Delta-T
°C
Wind Press
QNH
hPa
Press
MSL
hPa
Rain
since 9 am
mm
Dir
 
Spd
km/h
Gust
km/h
Spd
kts
Gust
kts
17/11:00pm 12.1 12.7 11.9 99 0.1 SSE 0 0 0 0 1018.7 1018.7 0.0
17/10:30pm 12.3 11.8 12.1 99 0.1 S 6 7 3 4 1019.0 1019.0 0.0
17/10:00pm 12.8 13.6 12.5 98 0.2 CALM 0 0 0 0 1018.9 1018.9 0.0
17/09:30pm 14.0 13.4 13.4 96 0.3 S 9 13 5 7 1018.9 1018.9 0.0
17/09:00pm 14.6 13.7 13.8 95 0.4 S 11 17 6 9 1018.9 1018.9 0.0
17/08:30pm 14.8 14.3 13.7 93 0.6 S 9 13 5 7 1018.8 1018.8 0.0
17/08:00pm 15.0 13.6 13.5 91 0.8 SSE 13 17 7 9 1018.4 1018.4 0.0
17/07:30pm 15.4 13.0 13.8 90 0.9 SSE 19 26 10 14 1018.0 1018.0 0.0
17/07:00pm 15.3 13.0 13.1 87 1.2 S 17 22 9 12 1017.5 1017.5 0.0
17/06:30pm 15.5 13.6 13.0 85 1.4 S 15 20 8 11 1017.5 1017.5 0.0
17/06:00pm 16.2 13.8 12.6 79 2.0 S 17 24 9 13 1017.2 1017.2 0.0
17/05:30pm 17.1 14.1 11.8 71 2.9 SSE 19 26 10 14 1016.8 1016.8 0.0
17/05:00pm 17.7 14.6 11.5 67 3.4 SSE 19 28 10 15 1016.4 1016.4 0.0
17/04:30pm 18.3 15.2 11.6 65 3.7 S 19 24 10 13 1016.3 1016.3 0.0
17/04:00pm 18.4 15.2 11.2 63 3.9 S 19 28 10 15 1016.1 1016.1 0.0
17/03:30pm 18.8 15.6 11.1 61 4.2 S 19 22 10 12 1016.0 1016.0 0.0
17/03:00pm 19.1 15.8 11.7 62 4.1 SSE 20 30 11 16 1015.9 1015.9 0.0
17/02:30pm 20.0 15.7 9.3 50 5.7 S 22 26 12 14 1016.0 1016.0 0.0
17/02:00pm 20.4 17.3 8.7 47 6.2 S 15 22 8 12 1015.9 1015.9 0.0
17/01:30pm 20.0 17.2 8.7 48 5.9 S 13 19 7 10 1015.9 1015.9 0.0
17/01:00pm 20.0 17.6 10.1 53 5.3 S 13 15 7 8 1016.0 1016.0 0.0
17/12:30pm 19.7 17.5 9.3 51 5.5 S 11 17 6 9 1016.5 1016.5 0.0
17/12:00pm 19.1 16.9 9.3 53 5.2 S 11 17 6 9 1017.1 1017.1 0.0
17/11:30am 18.6 17.2 10.9 61 4.2 S 9 15 5 8 1017.5 1017.5 0.0
17/11:00am 17.3 16.3 10.9 66 3.4 S 7 15 4 8 1018.0 1018.0 0.0
17/10:30am 16.2 15.3 11.4 73 2.6 SSE 7 11 4 6 1018.2 1018.2 0.0
17/10:00am 14.6 13.2 10.8 78 2.0 SE 9 13 5 7 1018.5 1018.5 0.0
17/09:30am 13.1 12.0 10.1 82 1.6 SE 6 11 3 6 1018.7 1018.7 0.0
17/09:00am 11.7 10.4 9.8 88 1.0 SE 7 11 4 6 1018.7 1018.7 -
17/08:30am 10.9 10.0 10.7 99 0.1 ESE 6 11 3 6 1018.8 1018.8 -
17/08:00am 9.8 9.8 9.7 99 0.1 CALM 0 6 0 3 1018.8 1018.8 -
17/07:30am 9.1 8.9 9.1 100 0.0 CALM 0 0 0 0 1018.7 1018.7 -
17/07:00am 8.2 7.8 8.2 100 0.0 CALM 0 0 0 0 1018.5 1018.5 -
17/06:30am 6.5 5.7 6.4 99 0.0 CALM 0 0 0 0 1018.5 1018.5 -
17/06:00am 6.6 5.8 6.5 99 0.0 SSE 0 0 0 0 1018.3 1018.3 -
17/05:30am 6.4 5.6 6.3 99 0.0 CALM 0 0 0 0 1018.1 1018.1 -
17/05:00am 6.5 5.7 6.4 99 0.0 CALM 0 0 0 0 1018.1 1018.1 -
17/04:30am 6.3 5.0 6.2 99 0.0 SE 2 9 1 5 1018.1 1018.1 -
17/04:00am 7.2 6.5 7.1 99 0.0 CALM 0 0 0 0 1018.1 1018.1 -
17/03:30am 7.7 7.1 7.6 99 0.0 CALM 0 0 0 0 1018.2 1018.2 -
17/03:00am 8.0 6.2 7.9 99 0.0 SSE 7 9 4 5 1018.1 1018.1 0.0
17/02:30am 8.8 6.8 8.7 99 0.0 S 9 9 5 5 1018.3 1018.3 -
17/02:00am 9.0 7.1 8.9 99 0.0 SSE 9 11 5 6 1018.4 1018.4 -
17/01:30am 9.7 7.9 9.6 99 0.1 S 9 13 5 7 1018.7 1018.7 -
17/01:00am 9.6 7.8 9.5 99 0.0 SSE 9 13 5 7 1018.8 1018.8 -
17/12:30am 9.9 7.8 9.8 99 0.1 SSE 11 15 6 8 1018.8 1018.8 -
17/12:00am 10.1 8.8 9.9 99 0.1 SSE 7 11 4 6 1018.9 1018.9 -
 
Date/Time
WST
Temp
°C
App
Temp
°C
Dew
Point
Rel
Hum
%
Delta-T
°C
Wind Press
QNH
hPa
Press
MSL
hPa
Rain
since 9 am
mm
Dir
 
Spd
km/h
Gust
km/h
Spd
kts
Gust
kts
16/11:30pm 10.8 9.3 10.6 99 0.1 SE 9 13 5 7 1019.3 1019.3 -
16/11:00pm 10.7 9.2 10.5 99 0.1 S 9 13 5 7 1019.4 1019.4 -
16/10:30pm 10.4 9.2 10.2 99 0.1 SSE 7 9 4 5 1019.3 1019.3 -
16/10:00pm 10.6 9.4 10.4 99 0.1 SSE 7 9 4 5 1019.5 1019.5 -
16/09:30pm 11.5 10.7 11.2 98 0.2 SSE 6 9 3 5 1019.8 1019.9 -
16/09:00pm 12.1 11.4 11.5 96 0.3 S 6 7 3 4 1019.9 1020.0 0.0
16/08:30pm 12.4 11.6 11.0 91 0.7 SSE 6 7 3 4 1019.8 1019.9 -
16/08:00pm 13.1 12.2 11.2 88 1.0 SE 7 11 4 6 1019.7 1019.8 -
16/07:30pm 13.5 12.5 10.9 84 1.4 SSE 7 9 4 5 1019.5 1019.5 -
16/07:00pm 14.2 12.0 10.8 80 1.8 SSE 13 19 7 10 1019.3 1019.3 -
16/06:30pm 14.7 12.3 10.1 74 2.4 SSE 13 19 7 10 1019.0 1019.0 -
16/06:00pm 15.3 12.8 9.7 69 2.9 SSE 13 20 7 11 1018.8 1018.8 -
16/05:30pm 16.1 12.8 9.5 65 3.4 SSE 17 24 9 13 1018.8 1018.8 -
16/05:00pm 16.7 12.0 9.4 62 3.8 SSE 24 32 13 17 1018.7 1018.7 -
16/04:30pm 17.3 13.3 9.2 59 4.2 SSE 20 30 11 16 1018.5 1018.5 -
16/04:00pm 18.4 14.3 8.7 53 5.0 SSE 20 26 11 14 1018.5 1018.5 -
16/03:30pm 18.9 14.8 7.7 48 5.7 SSE 19 26 10 14 1018.5 1018.5 -
16/03:00pm 19.2 15.6 6.7 44 6.3 SSE 15 22 8 12 1018.5 1018.5 -
16/02:30pm 19.4 16.4 7.8 47 6.0 SSE 13 19 7 10 1018.8 1018.8 -
16/02:00pm 19.0 15.6 5.8 42 6.5 ESE 13 19 7 10 1019.1 1019.1 -
16/01:30pm 18.6 15.2 6.1 44 6.2 ESE 13 20 7 11 1019.4 1019.4 -
16/12:30pm 17.8 14.7 7.2 50 5.3 SE 13 20 7 11 1020.4 1020.4 0.0
16/12:00pm 17.2 14.2 7.5 53 4.9 ESE 13 19 7 10 1021.1 1021.1 0.0
16/11:30am 16.3 11.8 5.9 50 5.0 E 19 37 10 20 1021.6 1021.6 0.0
16/11:00am 15.9 12.6 6.3 53 4.7 ESE 13 22 7 12 1022.2 1022.2 0.0
16/10:30am 15.2 10.7 6.2 55 4.4 ESE 19 26 10 14 1022.8 1022.8 0.0
16/10:00am 14.7 10.8 7.0 60 3.8 E 17 26 9 14 1023.2 1023.2 0.0
16/09:30am 14.6 11.6 7.9 64 3.3 E 13 24 7 13 1023.7 1023.7 0.0
16/09:00am 13.6 9.8 7.4 66 3.0 E 17 24 9 13 1024.0 1024.0 0.0
16/08:30am 12.8 10.1 7.3 69 2.7 E 11 19 6 10 1023.9 1023.9 0.0
16/08:00am 11.5 8.7 6.8 73 2.2 ESE 11 19 6 10 1023.5 1023.5 0.0
16/07:30am 9.8 7.7 6.5 80 1.5 E 7 11 4 6 1023.4 1023.4 0.0
16/07:00am 7.3 6.3 5.8 90 0.7 CALM 0 0 0 0 1023.3 1023.3 0.0
16/06:30am 6.5 5.3 4.8 89 0.7 CALM 0 6 0 3 1023.0 1023.0 0.0
16/06:00am 6.6 4.3 4.9 89 0.7 ESE 6 9 3 5 1022.8 1022.8 0.0
16/05:30am 6.4 5.2 4.6 88 0.8 CALM 0 6 0 3 1022.8 1022.8 0.0
16/05:00am 6.7 5.6 4.9 88 0.8 CALM 0 6 0 3 1022.7 1022.7 0.0
16/04:30am 6.9 5.0 4.9 87 0.9 SE 4 7 2 4 1022.7 1022.7 0.0
16/04:00am 7.0 5.5 5.0 87 0.9 SE 2 7 1 4 1022.8 1022.8 0.0
16/03:30am 7.0 4.6 4.5 84 1.1 SE 6 7 3 4 1023.0 1023.0 0.0
16/03:00am 7.7 6.3 5.3 85 1.1 SE 2 6 1 3 1023.1 1023.1 0.0
16/02:30am 7.4 6.3 4.9 84 1.1 CALM 0 6 0 3 1023.2 1023.2 0.0
16/02:00am 8.1 6.3 5.4 83 1.2 SE 4 9 2 5 1023.4 1023.4 0.0
16/01:30am 7.7 6.6 5.3 85 1.1 CALM 0 0 0 0 1023.4 1023.4 0.0
16/01:00am 7.8 6.1 5.8 87 0.9 SE 4 7 2 4 1023.6 1023.6 0.0
16/12:30am 7.4 6.4 5.4 87 0.9 CALM 0 0 0 0 1023.9 1023.9 0.0
16/12:00am 7.9 7.0 5.9 87 0.9 CALM 0 6 0 3 1024.0 1024.0 0.0
 
Date/Time
WST
Temp
°C
App
Temp
°C
Dew
Point
Rel
Hum
%
Delta-T
°C
Wind Press
QNH
hPa
Press
MSL
hPa
Rain
since 9 am
mm
Dir
 
Spd
km/h
Gust
km/h
Spd
kts
Gust
kts
15/11:30pm 7.8 6.1 5.9 88 0.9 SSE 4 7 2 4 1024.2 1024.2 0.0
15/11:00pm 8.2 7.4 6.3 88 0.9 CALM 0 0 0 0 1024.4 1024.4 0.0
15/10:30pm 8.3 7.5 6.4 88 0.9 CALM 0 0 0 0 1024.6 1024.6 0.0
15/10:00pm 8.2 6.1 6.0 86 1.0 ESE 6 9 3 5 1025.1 1025.1 0.0
15/09:30pm 8.9 6.7 6.2 83 1.2 SSE 7 13 4 7 1025.1 1025.1 0.0
15/09:00pm 9.7 7.6 6.6 81 1.4 S 7 11 4 6 1025.2 1025.2 0.0
15/08:30pm 9.9 7.9 6.1 77 1.8 SSE 6 9 3 5 1025.2 1025.2 0.0
15/08:00pm 10.6 8.0 6.2 74 2.0 SSE 9 11 5 6 1025.1 1025.1 0.0
15/07:30pm 11.2 8.6 6.3 72 2.3 S 9 11 5 6 1024.9 1024.9 0.0
15/07:00pm 11.5 8.9 6.2 70 2.5 SSE 9 13 5 7 1024.8 1024.8 0.0
15/06:30pm 12.1 9.2 6.4 68 2.7 SSE 11 13 6 7 1024.8 1024.8 0.0
15/06:00pm 13.1 9.4 6.2 63 3.3 SSE 15 20 8 11 1024.6 1024.6 0.0
15/05:30pm 14.0 9.5 5.9 58 3.9 SSE 19 24 10 13 1024.4 1024.4 0.0
15/05:00pm 14.6 9.8 5.7 55 4.2 SSE 20 30 11 16 1024.2 1024.2 0.0
15/04:30pm 14.9 9.7 5.4 53 4.5 SSE 22 30 12 16 1024.0 1024.0 0.0
15/04:00pm 15.5 10.4 6.0 53 4.6 SSE 22 32 12 17 1024.0 1024.0 0.0
15/03:30pm 15.9 10.9 6.3 53 4.7 SSE 22 32 12 17 1023.9 1023.9 0.0
15/03:00pm 16.2 11.7 6.3 52 4.8 S 19 28 10 15 1023.9 1023.9 0.0
15/02:30pm 16.1 11.5 6.5 53 4.7 S 20 28 11 15 1023.9 1023.9 0.0
15/02:00pm 16.3 11.8 6.2 51 4.9 S 19 28 10 15 1023.8 1023.8 0.0
15/01:30pm 16.4 12.9 5.4 48 5.3 SE 13 19 7 10 1023.9 1023.9 0.0
15/01:00pm 16.1 13.0 5.7 50 5.0 ESE 11 19 6 10 1024.1 1024.1 0.0
15/12:30pm 16.0 12.6 5.9 51 4.9 ESE 13 22 7 12 1024.5 1024.5 0.0
15/12:00pm 15.6 12.1 5.5 51 4.8 ESE 13 20 7 11 1024.8 1024.8 0.0
15/11:30am 15.8 12.1 6.3 53 4.6 SSE 15 22 8 12 1025.2 1025.2 0.0
15/11:00am 15.6 12.3 6.3 54 4.5 ESE 13 22 7 12 1025.4 1025.4 0.0
15/10:30am 15.1 11.0 6.4 56 4.2 SE 17 24 9 13 1025.7 1025.7 0.0
15/10:00am 14.6 10.7 5.4 54 4.3 SE 15 24 8 13 1026.0 1026.0 0.0
15/09:30am 14.0 10.6 6.1 59 3.8 SE 13 17 7 9 1026.2 1026.2 0.0
15/09:00am 13.2 9.8 5.9 61 3.4 SSE 13 20 7 11 1026.3 1026.3 0.8
15/08:30am 13.0 10.9 6.6 65 3.1 SSE 7 11 4 6 1026.5 1026.5 0.8
15/08:00am 10.9 11.0 10.3 96 0.3 CALM 0 6 0 3 1026.4 1026.4 0.8
15/07:30am 8.8 8.5 8.7 99 0.0 CALM 0 0 0 0 1026.4 1026.4 0.8
15/07:00am 6.9 6.2 6.8 99 0.0 CALM 0 0 0 0 1026.3 1026.3 0.8
15/06:30am 6.5 5.7 6.4 99 0.0 CALM 0 0 0 0 1026.1 1026.1 0.8
15/06:00am 7.3 5.9 7.2 99 0.0 SSW 4 11 2 6 1026.0 1026.0 0.8
15/05:30am 6.8 6.0 6.7 99 0.0 CALM 0 0 0 0 1025.7 1025.7 0.8
15/05:00am 6.8 6.0 6.7 99 0.0 CALM 0 0 0 0 1025.6 1025.6 0.8
15/04:30am 6.8 6.0 6.7 99 0.0 CALM 0 0 0 0 1025.5 1025.5 0.8
15/04:00am 6.5 5.7 6.4 99 0.0 CALM 0 0 0 0 1025.2 1025.2 0.8
15/03:30am 6.2 5.3 6.1 99 0.0 CALM 0 0 0 0 1025.1 1025.1 0.8
15/03:00am 6.2 5.3 6.1 99 0.0 CALM 0 0 0 0 1025.2 1025.2 0.8
15/02:30am 6.6 5.8 6.5 99 0.0 CALM 0 0 0 0 1025.4 1025.4 0.8
15/02:00am 6.8 6.0 6.7 99 0.0 CALM 0 0 0 0 1025.3 1025.3 0.8
15/01:30am 6.8 6.0 6.7 99 0.0 CALM 0 0 0 0 1025.6 1025.6 0.8
15/01:00am 6.1 5.2 6.0 99 0.0 CALM 0 0 0 0 1025.7 1025.7 0.8
15/12:30am 6.4 5.6 6.3 99 0.0 CALM 0 0 0 0 1025.6 1025.6 0.8
15/12:00am 6.3 5.3 5.7 96 0.3 CALM 0 0 0 0 1025.4 1025.4 0.8
 
Date/Time
WST
Temp
°C
App
Temp
°C
Dew
Point
Rel
Hum
%
Delta-T
°C
Wind Press
QNH
hPa
Press
MSL
hPa
Rain
since 9 am
mm
Dir
 
Spd
km/h
Gust
km/h
Spd
kts
Gust
kts
14/11:30pm 6.8 5.8 5.7 93 0.5 CALM 0 6 0 3 1025.4 1025.4 0.8

Other Formats:

Comma delimited format used in spreadsheet applications
http://www.bom.gov.au/fwo/IDW60801/IDW60801.95641.axf

JavaScript Object Notation format (JSON) in row-major order
http://www.bom.gov.au/fwo/IDW60801/IDW60801.95641.json